sensor_id;sensor_type;location;lat;lon;timestamp;P1;durP1;ratioP1;P2;durP2;ratioP2
10170;SDS011;5127;50.922;6.988;2024-02-26T00:00:26;2.07;;;1.70;;
10170;SDS011;5127;50.922;6.988;2024-02-26T00:02:54;1.70;;;1.50;;
10170;SDS011;5127;50.922;6.988;2024-02-26T00:05:21;1.93;;;1.40;;
10170;SDS011;5127;50.922;6.988;2024-02-26T00:07:49;1.13;;;1.03;;
10170;SDS011;5127;50.922;6.988;2024-02-26T00:10:16;2.10;;;1.40;;
10170;SDS011;5127;50.922;6.988;2024-02-26T00:12:43;0.97;;;0.90;;
10170;SDS011;5127;50.922;6.988;2024-02-26T00:15:12;1.17;;;1.03;;
10170;SDS011;5127;50.922;6.988;2024-02-26T00:17:39;1.10;;;0.97;;
10170;SDS011;5127;50.922;6.988;2024-02-26T00:20:07;1.20;;;0.93;;
10170;SDS011;5127;50.922;6.988;2024-02-26T00:22:36;1.17;;;1.00;;
10170;SDS011;5127;50.922;6.988;2024-02-26T00:25:05;0.90;;;0.80;;
10170;SDS011;5127;50.922;6.988;2024-02-26T00:27:33;1.33;;;0.80;;
10170;SDS011;5127;50.922;6.988;2024-02-26T00:30:00;0.93;;;0.77;;
10170;SDS011;5127;50.922;6.988;2024-02-26T00:32:29;0.60;;;0.60;;
10170;SDS011;5127;50.922;6.988;2024-02-26T00:34:56;0.80;;;0.80;;
10170;SDS011;5127;50.922;6.988;2024-02-26T00:37:23;0.67;;;0.67;;
10170;SDS011;5127;50.922;6.988;2024-02-26T00:39:50;1.10;;;0.80;;
10170;SDS011;5127;50.922;6.988;2024-02-26T00:42:18;2.13;;;0.70;;
10170;SDS011;5127;50.922;6.988;2024-02-26T00:44:46;0.60;;;0.60;;
10170;SDS011;5127;50.922;6.988;2024-02-26T00:47:13;0.93;;;0.50;;
10170;SDS011;5127;50.922;6.988;2024-02-26T00:49:41;1.17;;;0.70;;
10170;SDS011;5127;50.922;6.988;2024-02-26T00:52:09;0.60;;;0.60;;
10170;SDS011;5127;50.922;6.988;2024-02-26T00:54:36;0.63;;;0.60;;
10170;SDS011;5127;50.922;6.988;2024-02-26T00:57:03;0.50;;;0.50;;
10170;SDS011;5127;50.922;6.988;2024-02-26T00:59:31;0.83;;;0.53;;
10170;SDS011;5127;50.922;6.988;2024-02-26T01:01:58;0.60;;;0.60;;
10170;SDS011;5127;50.922;6.988;2024-02-26T01:04:27;0.60;;;0.60;;
10170;SDS011;5127;50.922;6.988;2024-02-26T01:06:56;3.63;;;0.80;;
10170;SDS011;5127;50.922;6.988;2024-02-26T01:09:23;0.60;;;0.60;;
10170;SDS011;5127;50.922;6.988;2024-02-26T01:11:51;0.50;;;0.50;;
10170;SDS011;5127;50.922;6.988;2024-02-26T01:14:18;0.50;;;0.50;;
10170;SDS011;5127;50.922;6.988;2024-02-26T01:16:45;1.80;;;0.70;;
10170;SDS011;5127;50.922;6.988;2024-02-26T01:19:13;0.50;;;0.50;;
10170;SDS011;5127;50.922;6.988;2024-02-26T01:21:40;0.50;;;0.43;;
10170;SDS011;5127;50.922;6.988;2024-02-26T01:24:09;0.50;;;0.50;;
10170;SDS011;5127;50.922;6.988;2024-02-26T01:26:37;0.40;;;0.40;;
10170;SDS011;5127;50.922;6.988;2024-02-26T01:29:04;0.70;;;0.70;;
10170;SDS011;5127;50.922;6.988;2024-02-26T01:31:32;0.87;;;0.50;;
10170;SDS011;5127;50.922;6.988;2024-02-26T01:33:59;0.73;;;0.50;;
10170;SDS011;5127;50.922;6.988;2024-02-26T01:36:26;0.63;;;0.63;;
10170;SDS011;5127;50.922;6.988;2024-02-26T01:38:53;0.60;;;0.60;;
10170;SDS011;5127;50.922;6.988;2024-02-26T01:41:24;0.63;;;0.57;;
10170;SDS011;5127;50.922;6.988;2024-02-26T01:43:52;0.60;;;0.60;;
10170;SDS011;5127;50.922;6.988;2024-02-26T01:46:19;0.50;;;0.50;;
10170;SDS011;5127;50.922;6.988;2024-02-26T01:48:47;0.67;;;0.60;;
10170;SDS011;5127;50.922;6.988;2024-02-26T01:51:15;0.77;;;0.57;;
10170;SDS011;5127;50.922;6.988;2024-02-26T01:53:44;1.07;;;0.63;;
10170;SDS011;5127;50.922;6.988;2024-02-26T01:56:11;0.40;;;0.40;;
10170;SDS011;5127;50.922;6.988;2024-02-26T01:58:40;0.50;;;0.50;;
10170;SDS011;5127;50.922;6.988;2024-02-26T02:01:08;0.67;;;0.60;;
10170;SDS011;5127;50.922;6.988;2024-02-26T02:03:35;0.40;;;0.40;;
10170;SDS011;5127;50.922;6.988;2024-02-26T02:06:03;0.60;;;0.60;;
10170;SDS011;5127;50.922;6.988;2024-02-26T02:08:32;0.63;;;0.50;;
10170;SDS011;5127;50.922;6.988;2024-02-26T02:11:00;0.97;;;0.40;;
10170;SDS011;5127;50.922;6.988;2024-02-26T02:13:28;0.60;;;0.60;;
10170;SDS011;5127;50.922;6.988;2024-02-26T02:15:56;0.43;;;0.40;;
10170;SDS011;5127;50.922;6.988;2024-02-26T02:18:24;0.50;;;0.50;;
10170;SDS011;5127;50.922;6.988;2024-02-26T02:20:53;1.33;;;0.60;;
10170;SDS011;5127;50.922;6.988;2024-02-26T02:23:21;0.80;;;0.57;;
10170;SDS011;5127;50.922;6.988;2024-02-26T02:25:49;0.57;;;0.53;;
10170;SDS011;5127;50.922;6.988;2024-02-26T02:28:16;0.60;;;0.50;;
10170;SDS011;5127;50.922;6.988;2024-02-26T02:30:43;0.87;;;0.70;;
10170;SDS011;5127;50.922;6.988;2024-02-26T02:33:11;0.97;;;0.60;;
10170;SDS011;5127;50.922;6.988;2024-02-26T02:35:38;0.50;;;0.50;;
10170;SDS011;5127;50.922;6.988;2024-02-26T02:38:07;0.77;;;0.60;;
10170;SDS011;5127;50.922;6.988;2024-02-26T02:40:34;0.60;;;0.60;;
10170;SDS011;5127;50.922;6.988;2024-02-26T02:43:02;0.57;;;0.57;;
10170;SDS011;5127;50.922;6.988;2024-02-26T02:45:30;0.57;;;0.57;;
10170;SDS011;5127;50.922;6.988;2024-02-26T02:47:57;1.10;;;0.70;;
10170;SDS011;5127;50.922;6.988;2024-02-26T02:50:25;0.53;;;0.53;;
10170;SDS011;5127;50.922;6.988;2024-02-26T02:52:54;1.17;;;0.60;;
10170;SDS011;5127;50.922;6.988;2024-02-26T02:55:23;1.33;;;0.60;;
10170;SDS011;5127;50.922;6.988;2024-02-26T02:57:50;0.80;;;0.50;;
10170;SDS011;5127;50.922;6.988;2024-02-26T03:00:18;0.50;;;0.50;;
10170;SDS011;5127;50.922;6.988;2024-02-26T03:02:45;0.70;;;0.70;;
10170;SDS011;5127;50.922;6.988;2024-02-26T03:05:12;0.87;;;0.60;;
10170;SDS011;5127;50.922;6.988;2024-02-26T03:07:40;0.50;;;0.50;;
10170;SDS011;5127;50.922;6.988;2024-02-26T03:10:07;0.60;;;0.60;;
10170;SDS011;5127;50.922;6.988;2024-02-26T03:12:36;1.07;;;0.70;;
10170;SDS011;5127;50.922;6.988;2024-02-26T03:15:03;0.43;;;0.40;;
10170;SDS011;5127;50.922;6.988;2024-02-26T03:17:31;1.10;;;0.57;;
10170;SDS011;5127;50.922;6.988;2024-02-26T03:19:58;0.70;;;0.60;;
10170;SDS011;5127;50.922;6.988;2024-02-26T03:22:26;0.63;;;0.63;;
10170;SDS011;5127;50.922;6.988;2024-02-26T03:24:53;0.47;;;0.47;;
10170;SDS011;5127;50.922;6.988;2024-02-26T03:27:20;1.00;;;0.57;;
10170;SDS011;5127;50.922;6.988;2024-02-26T03:29:49;0.83;;;0.60;;
10170;SDS011;5127;50.922;6.988;2024-02-26T03:32:16;0.70;;;0.70;;
10170;SDS011;5127;50.922;6.988;2024-02-26T03:34:43;2.20;;;0.70;;
10170;SDS011;5127;50.922;6.988;2024-02-26T03:37:11;0.80;;;0.70;;
10170;SDS011;5127;50.922;6.988;2024-02-26T03:39:38;1.00;;;0.63;;
10170;SDS011;5127;50.922;6.988;2024-02-26T03:42:05;0.90;;;0.70;;
10170;SDS011;5127;50.922;6.988;2024-02-26T03:44:33;0.60;;;0.60;;
10170;SDS011;5127;50.922;6.988;2024-02-26T03:47:02;0.70;;;0.70;;
10170;SDS011;5127;50.922;6.988;2024-02-26T03:49:29;0.63;;;0.60;;
10170;SDS011;5127;50.922;6.988;2024-02-26T03:51:57;1.00;;;0.70;;
10170;SDS011;5127;50.922;6.988;2024-02-26T03:54:24;2.00;;;0.60;;
10170;SDS011;5127;50.922;6.988;2024-02-26T03:56:52;0.80;;;0.70;;
10170;SDS011;5127;50.922;6.988;2024-02-26T03:59:19;1.63;;;0.83;;
10170;SDS011;5127;50.922;6.988;2024-02-26T04:01:47;1.10;;;0.90;;
10170;SDS011;5127;50.922;6.988;2024-02-26T04:04:16;1.77;;;1.30;;
10170;SDS011;5127;50.922;6.988;2024-02-26T04:06:44;1.03;;;0.70;;
10170;SDS011;5127;50.922;6.988;2024-02-26T04:09:13;0.87;;;0.87;;
10170;SDS011;5127;50.922;6.988;2024-02-26T04:11:40;1.00;;;0.70;;
10170;SDS011;5127;50.922;6.988;2024-02-26T04:14:08;1.90;;;0.90;;
10170;SDS011;5127;50.922;6.988;2024-02-26T04:16:37;1.20;;;1.00;;
10170;SDS011;5127;50.922;6.988;2024-02-26T04:19:05;1.73;;;1.33;;
10170;SDS011;5127;50.922;6.988;2024-02-26T04:21:34;2.17;;;1.40;;
10170;SDS011;5127;50.922;6.988;2024-02-26T04:24:01;1.53;;;1.30;;
10170;SDS011;5127;50.922;6.988;2024-02-26T04:26:31;1.30;;;1.20;;
10170;SDS011;5127;50.922;6.988;2024-02-26T04:28:59;1.20;;;1.10;;
10170;SDS011;5127;50.922;6.988;2024-02-26T04:31:26;1.60;;;1.10;;
10170;SDS011;5127;50.922;6.988;2024-02-26T04:33:54;1.17;;;0.87;;
10170;SDS011;5127;50.922;6.988;2024-02-26T04:36:21;2.13;;;0.90;;
10170;SDS011;5127;50.922;6.988;2024-02-26T04:38:50;0.80;;;0.80;;
10170;SDS011;5127;50.922;6.988;2024-02-26T04:41:20;1.00;;;0.60;;
10170;SDS011;5127;50.922;6.988;2024-02-26T04:43:47;0.60;;;0.60;;
10170;SDS011;5127;50.922;6.988;2024-02-26T04:46:14;0.60;;;0.50;;
10170;SDS011;5127;50.922;6.988;2024-02-26T04:48:41;0.60;;;0.60;;
10170;SDS011;5127;50.922;6.988;2024-02-26T04:51:11;1.27;;;0.87;;
10170;SDS011;5127;50.922;6.988;2024-02-26T04:53:39;1.07;;;0.80;;
10170;SDS011;5127;50.922;6.988;2024-02-26T04:56:07;0.70;;;0.70;;
10170;SDS011;5127;50.922;6.988;2024-02-26T04:58:35;0.97;;;0.70;;
10170;SDS011;5127;50.922;6.988;2024-02-26T05:01:02;1.00;;;0.70;;
10170;SDS011;5127;50.922;6.988;2024-02-26T05:03:30;0.77;;;0.50;;
10170;SDS011;5127;50.922;6.988;2024-02-26T05:05:57;1.77;;;0.90;;
10170;SDS011;5127;50.922;6.988;2024-02-26T05:08:26;0.57;;;0.57;;
10170;SDS011;5127;50.922;6.988;2024-02-26T05:10:54;1.13;;;0.80;;
10170;SDS011;5127;50.922;6.988;2024-02-26T05:13:22;1.00;;;0.70;;
10170;SDS011;5127;50.922;6.988;2024-02-26T05:15:49;0.53;;;0.50;;
10170;SDS011;5127;50.922;6.988;2024-02-26T05:18:18;0.70;;;0.57;;
10170;SDS011;5127;50.922;6.988;2024-02-26T05:20:45;0.60;;;0.60;;
10170;SDS011;5127;50.922;6.988;2024-02-26T05:23:12;0.73;;;0.70;;
10170;SDS011;5127;50.922;6.988;2024-02-26T05:25:40;3.70;;;0.70;;
10170;SDS011;5127;50.922;6.988;2024-02-26T05:28:07;0.50;;;0.50;;
10170;SDS011;5127;50.922;6.988;2024-02-26T05:30:36;1.63;;;0.80;;
10170;SDS011;5127;50.922;6.988;2024-02-26T05:33:05;0.70;;;0.70;;
10170;SDS011;5127;50.922;6.988;2024-02-26T05:35:32;0.70;;;0.70;;
10170;SDS011;5127;50.922;6.988;2024-02-26T05:38:00;0.50;;;0.50;;
10170;SDS011;5127;50.922;6.988;2024-02-26T05:40:28;1.47;;;1.10;;
10170;SDS011;5127;50.922;6.988;2024-02-26T05:42:55;0.93;;;0.70;;
10170;SDS011;5127;50.922;6.988;2024-02-26T05:45:22;0.70;;;0.70;;
10170;SDS011;5127;50.922;6.988;2024-02-26T05:47:51;0.60;;;0.60;;
10170;SDS011;5127;50.922;6.988;2024-02-26T05:50:18;1.47;;;0.70;;
10170;SDS011;5127;50.922;6.988;2024-02-26T05:52:46;1.00;;;0.63;;
10170;SDS011;5127;50.922;6.988;2024-02-26T05:55:13;0.70;;;0.60;;
10170;SDS011;5127;50.922;6.988;2024-02-26T05:57:40;1.33;;;0.70;;
10170;SDS011;5127;50.922;6.988;2024-02-26T06:00:08;1.63;;;0.60;;
10170;SDS011;5127;50.922;6.988;2024-02-26T06:02:38;1.20;;;0.70;;
10170;SDS011;5127;50.922;6.988;2024-02-26T06:05:07;1.43;;;0.90;;
10170;SDS011;5127;50.922;6.988;2024-02-26T06:07:35;0.73;;;0.70;;
10170;SDS011;5127;50.922;6.988;2024-02-26T06:10:02;1.10;;;0.80;;
10170;SDS011;5127;50.922;6.988;2024-02-26T06:12:30;1.50;;;0.87;;
10170;SDS011;5127;50.922;6.988;2024-02-26T06:14:58;1.13;;;1.03;;
10170;SDS011;5127;50.922;6.988;2024-02-26T06:17:26;0.80;;;0.80;;
10170;SDS011;5127;50.922;6.988;2024-02-26T06:19:54;2.73;;;1.13;;
10170;SDS011;5127;50.922;6.988;2024-02-26T06:22:23;0.93;;;0.80;;
10170;SDS011;5127;50.922;6.988;2024-02-26T06:24:50;0.80;;;0.80;;
10170;SDS011;5127;50.922;6.988;2024-02-26T06:27:17;0.70;;;0.70;;
10170;SDS011;5127;50.922;6.988;2024-02-26T06:29:44;1.30;;;0.93;;
10170;SDS011;5127;50.922;6.988;2024-02-26T06:32:12;0.97;;;0.90;;
10170;SDS011;5127;50.922;6.988;2024-02-26T06:34:40;1.37;;;0.83;;
10170;SDS011;5127;50.922;6.988;2024-02-26T06:37:07;1.10;;;0.90;;
10170;SDS011;5127;50.922;6.988;2024-02-26T06:39:36;1.20;;;0.80;;
10170;SDS011;5127;50.922;6.988;2024-02-26T06:42:04;1.20;;;1.10;;
10170;SDS011;5127;50.922;6.988;2024-02-26T06:44:32;1.63;;;0.90;;
10170;SDS011;5127;50.922;6.988;2024-02-26T06:46:59;1.40;;;0.90;;
10170;SDS011;5127;50.922;6.988;2024-02-26T06:49:28;1.03;;;1.00;;
10170;SDS011;5127;50.922;6.988;2024-02-26T06:51:55;2.07;;;0.90;;
10170;SDS011;5127;50.922;6.988;2024-02-26T06:54:22;1.83;;;0.90;;
10170;SDS011;5127;50.922;6.988;2024-02-26T06:56:51;1.20;;;0.93;;
10170;SDS011;5127;50.922;6.988;2024-02-26T06:59:18;2.50;;;1.10;;
10170;SDS011;5127;50.922;6.988;2024-02-26T07:01:46;1.00;;;0.90;;
10170;SDS011;5127;50.922;6.988;2024-02-26T07:04:13;2.50;;;1.00;;
10170;SDS011;5127;50.922;6.988;2024-02-26T07:06:41;2.57;;;0.97;;
10170;SDS011;5127;50.922;6.988;2024-02-26T07:09:09;2.17;;;1.00;;
10170;SDS011;5127;50.922;6.988;2024-02-26T07:11:37;1.57;;;1.10;;
10170;SDS011;5127;50.922;6.988;2024-02-26T07:14:08;1.00;;;0.90;;
10170;SDS011;5127;50.922;6.988;2024-02-26T07:16:36;1.23;;;0.90;;
10170;SDS011;5127;50.922;6.988;2024-02-26T07:19:03;1.97;;;1.40;;
10170;SDS011;5127;50.922;6.988;2024-02-26T07:21:31;2.47;;;1.80;;
10170;SDS011;5127;50.922;6.988;2024-02-26T07:23:58;1.90;;;1.27;;
10170;SDS011;5127;50.922;6.988;2024-02-26T07:26:25;1.53;;;1.27;;
10170;SDS011;5127;50.922;6.988;2024-02-26T07:28:55;1.30;;;1.20;;
10170;SDS011;5127;50.922;6.988;2024-02-26T07:31:24;1.10;;;1.10;;
10170;SDS011;5127;50.922;6.988;2024-02-26T07:33:51;1.33;;;1.03;;
10170;SDS011;5127;50.922;6.988;2024-02-26T07:36:19;3.27;;;1.20;;
10170;SDS011;5127;50.922;6.988;2024-02-26T07:38:46;2.27;;;1.23;;
10170;SDS011;5127;50.922;6.988;2024-02-26T07:41:13;1.90;;;1.30;;
10170;SDS011;5127;50.922;6.988;2024-02-26T07:43:41;1.00;;;1.00;;
10170;SDS011;5127;50.922;6.988;2024-02-26T07:46:10;1.53;;;1.17;;
10170;SDS011;5127;50.922;6.988;2024-02-26T07:48:39;1.87;;;1.30;;
10170;SDS011;5127;50.922;6.988;2024-02-26T07:51:07;1.13;;;1.00;;
10170;SDS011;5127;50.922;6.988;2024-02-26T07:53:34;1.50;;;1.17;;
10170;SDS011;5127;50.922;6.988;2024-02-26T07:56:02;1.50;;;1.10;;
10170;SDS011;5127;50.922;6.988;2024-02-26T07:58:29;0.80;;;0.80;;
10170;SDS011;5127;50.922;6.988;2024-02-26T08:00:56;1.27;;;1.00;;
10170;SDS011;5127;50.922;6.988;2024-02-26T08:03:24;1.10;;;1.00;;
10170;SDS011;5127;50.922;6.988;2024-02-26T08:05:52;1.67;;;1.30;;
10170;SDS011;5127;50.922;6.988;2024-02-26T08:08:20;1.50;;;1.10;;
10170;SDS011;5127;50.922;6.988;2024-02-26T08:10:47;1.00;;;1.00;;
10170;SDS011;5127;50.922;6.988;2024-02-26T08:13:15;1.17;;;0.90;;
10170;SDS011;5127;50.922;6.988;2024-02-26T08:15:42;1.43;;;1.00;;
10170;SDS011;5127;50.922;6.988;2024-02-26T08:18:09;1.30;;;1.20;;
10170;SDS011;5127;50.922;6.988;2024-02-26T08:20:36;2.30;;;0.90;;
10170;SDS011;5127;50.922;6.988;2024-02-26T08:23:05;1.17;;;1.07;;
10170;SDS011;5127;50.922;6.988;2024-02-26T08:25:32;1.30;;;1.10;;
10170;SDS011;5127;50.922;6.988;2024-02-26T08:28:00;1.13;;;1.03;;
10170;SDS011;5127;50.922;6.988;2024-02-26T08:30:27;3.17;;;1.00;;
10170;SDS011;5127;50.922;6.988;2024-02-26T08:32:55;1.23;;;0.90;;
10170;SDS011;5127;50.922;6.988;2024-02-26T08:35:22;1.70;;;1.10;;
10170;SDS011;5127;50.922;6.988;2024-02-26T08:37:49;1.33;;;1.20;;
10170;SDS011;5127;50.922;6.988;2024-02-26T08:40:18;2.33;;;1.20;;
10170;SDS011;5127;50.922;6.988;2024-02-26T08:42:46;1.70;;;1.30;;
10170;SDS011;5127;50.922;6.988;2024-02-26T08:45:14;0.93;;;0.93;;
10170;SDS011;5127;50.922;6.988;2024-02-26T08:47:44;1.20;;;1.10;;
10170;SDS011;5127;50.922;6.988;2024-02-26T08:50:11;1.13;;;1.10;;
10170;SDS011;5127;50.922;6.988;2024-02-26T08:52:38;2.23;;;1.30;;
10170;SDS011;5127;50.922;6.988;2024-02-26T08:55:06;1.87;;;1.20;;
10170;SDS011;5127;50.922;6.988;2024-02-26T08:57:35;1.40;;;1.20;;
10170;SDS011;5127;50.922;6.988;2024-02-26T09:00:04;1.20;;;1.10;;
10170;SDS011;5127;50.922;6.988;2024-02-26T09:02:32;1.10;;;1.00;;
10170;SDS011;5127;50.922;6.988;2024-02-26T09:04:59;1.93;;;1.10;;
10170;SDS011;5127;50.922;6.988;2024-02-26T09:07:27;1.33;;;1.23;;
10170;SDS011;5127;50.922;6.988;2024-02-26T09:09:54;1.87;;;1.20;;
10170;SDS011;5127;50.922;6.988;2024-02-26T09:12:22;1.33;;;1.23;;
10170;SDS011;5127;50.922;6.988;2024-02-26T09:14:50;2.17;;;1.50;;
10170;SDS011;5127;50.922;6.988;2024-02-26T09:17:18;1.73;;;1.40;;
10170;SDS011;5127;50.922;6.988;2024-02-26T09:19:45;1.60;;;1.50;;
10170;SDS011;5127;50.922;6.988;2024-02-26T09:22:12;2.27;;;1.30;;
10170;SDS011;5127;50.922;6.988;2024-02-26T09:24:40;1.47;;;1.37;;
10170;SDS011;5127;50.922;6.988;2024-02-26T09:27:07;2.17;;;1.23;;
10170;SDS011;5127;50.922;6.988;2024-02-26T09:29:35;2.23;;;1.23;;
10170;SDS011;5127;50.922;6.988;2024-02-26T09:32:04;1.60;;;1.40;;
10170;SDS011;5127;50.922;6.988;2024-02-26T09:34:31;1.47;;;1.37;;
10170;SDS011;5127;50.922;6.988;2024-02-26T09:36:59;1.47;;;1.33;;
10170;SDS011;5127;50.922;6.988;2024-02-26T09:39:27;1.53;;;1.13;;
10170;SDS011;5127;50.922;6.988;2024-02-26T09:41:54;1.50;;;1.40;;
10170;SDS011;5127;50.922;6.988;2024-02-26T09:44:22;2.23;;;1.50;;
10170;SDS011;5127;50.922;6.988;2024-02-26T09:46:51;1.47;;;1.37;;
10170;SDS011;5127;50.922;6.988;2024-02-26T09:49:22;1.40;;;1.30;;
10170;SDS011;5127;50.922;6.988;2024-02-26T09:51:50;4.83;;;1.70;;
10170;SDS011;5127;50.922;6.988;2024-02-26T09:54:20;1.23;;;1.13;;
10170;SDS011;5127;50.922;6.988;2024-02-26T09:56:48;1.33;;;1.23;;
10170;SDS011;5127;50.922;6.988;2024-02-26T09:59:18;1.50;;;1.23;;
10170;SDS011;5127;50.922;6.988;2024-02-26T10:01:46;1.80;;;1.27;;
10170;SDS011;5127;50.922;6.988;2024-02-26T10:04:14;1.73;;;1.13;;
10170;SDS011;5127;50.922;6.988;2024-02-26T10:06:43;3.53;;;1.33;;
10170;SDS011;5127;50.922;6.988;2024-02-26T10:09:12;1.33;;;1.23;;
10170;SDS011;5127;50.922;6.988;2024-02-26T10:11:41;1.37;;;1.10;;
10170;SDS011;5127;50.922;6.988;2024-02-26T10:14:09;1.13;;;0.97;;
10170;SDS011;5127;50.922;6.988;2024-02-26T10:16:37;1.40;;;1.30;;
10170;SDS011;5127;50.922;6.988;2024-02-26T10:19:05;1.70;;;1.10;;
10170;SDS011;5127;50.922;6.988;2024-02-26T10:21:32;1.40;;;1.20;;
10170;SDS011;5127;50.922;6.988;2024-02-26T10:24:01;1.40;;;1.30;;
10170;SDS011;5127;50.922;6.988;2024-02-26T10:26:30;1.47;;;1.37;;
10170;SDS011;5127;50.922;6.988;2024-02-26T10:28:59;1.43;;;1.10;;
10170;SDS011;5127;50.922;6.988;2024-02-26T10:31:29;1.77;;;1.23;;
10170;SDS011;5127;50.922;6.988;2024-02-26T10:33:57;1.27;;;1.17;;
10170;SDS011;5127;50.922;6.988;2024-02-26T10:36:25;2.27;;;1.33;;
10170;SDS011;5127;50.922;6.988;2024-02-26T10:38:54;2.23;;;1.40;;
10170;SDS011;5127;50.922;6.988;2024-02-26T10:41:23;1.17;;;1.07;;
10170;SDS011;5127;50.922;6.988;2024-02-26T10:43:50;1.93;;;1.40;;
10170;SDS011;5127;50.922;6.988;2024-02-26T10:46:18;1.83;;;1.50;;
10170;SDS011;5127;50.922;6.988;2024-02-26T10:48:49;1.30;;;1.20;;
10170;SDS011;5127;50.922;6.988;2024-02-26T10:51:17;1.63;;;1.40;;
10170;SDS011;5127;50.922;6.988;2024-02-26T10:53:54;1.23;;;1.13;;
10170;SDS011;5127;50.922;6.988;2024-02-26T10:56:26;1.63;;;1.40;;
10170;SDS011;5127;50.922;6.988;2024-02-26T10:58:54;1.33;;;1.23;;
10170;SDS011;5127;50.922;6.988;2024-02-26T11:01:22;1.60;;;1.50;;
10170;SDS011;5127;50.922;6.988;2024-02-26T11:03:51;1.40;;;1.30;;
10170;SDS011;5127;50.922;6.988;2024-02-26T11:06:19;1.50;;;1.40;;
10170;SDS011;5127;50.922;6.988;2024-02-26T11:08:49;1.90;;;1.50;;
10170;SDS011;5127;50.922;6.988;2024-02-26T11:11:17;1.93;;;1.50;;
10170;SDS011;5127;50.922;6.988;2024-02-26T11:13:46;1.40;;;1.30;;
10170;SDS011;5127;50.922;6.988;2024-02-26T11:16:16;1.73;;;1.63;;
10170;SDS011;5127;50.922;6.988;2024-02-26T11:18:46;2.10;;;1.20;;
10170;SDS011;5127;50.922;6.988;2024-02-26T11:21:15;1.87;;;1.40;;
10170;SDS011;5127;50.922;6.988;2024-02-26T11:23:44;1.50;;;1.40;;
10170;SDS011;5127;50.922;6.988;2024-02-26T11:26:12;1.70;;;1.60;;
10170;SDS011;5127;50.922;6.988;2024-02-26T11:28:42;1.50;;;1.30;;
10170;SDS011;5127;50.922;6.988;2024-02-26T11:31:12;1.57;;;1.23;;
10170;SDS011;5127;50.922;6.988;2024-02-26T11:33:40;1.80;;;1.30;;
10170;SDS011;5127;50.922;6.988;2024-02-26T11:36:08;1.40;;;1.20;;
10170;SDS011;5127;50.922;6.988;2024-02-26T11:38:36;1.47;;;1.33;;
10170;SDS011;5127;50.922;6.988;2024-02-26T11:41:04;1.70;;;1.20;;
10170;SDS011;5127;50.922;6.988;2024-02-26T11:43:51;2.63;;;1.80;;
10170;SDS011;5127;50.922;6.988;2024-02-26T11:46:27;2.00;;;1.30;;
10170;SDS011;5127;50.922;6.988;2024-02-26T11:48:56;1.50;;;1.40;;
10170;SDS011;5127;50.922;6.988;2024-02-26T11:51:25;2.03;;;1.43;;
10170;SDS011;5127;50.922;6.988;2024-02-26T11:53:54;1.57;;;1.47;;
10170;SDS011;5127;50.922;6.988;2024-02-26T11:56:24;1.83;;;1.57;;
10170;SDS011;5127;50.922;6.988;2024-02-26T11:58:59;2.47;;;1.50;;
10170;SDS011;5127;50.922;6.988;2024-02-26T12:01:35;1.40;;;1.23;;
10170;SDS011;5127;50.922;6.988;2024-02-26T12:04:07;1.57;;;1.47;;
10170;SDS011;5127;50.922;6.988;2024-02-26T12:06:41;2.07;;;1.50;;
10170;SDS011;5127;50.922;6.988;2024-02-26T12:09:09;1.33;;;1.23;;
10170;SDS011;5127;50.922;6.988;2024-02-26T12:11:39;1.60;;;1.50;;
10170;SDS011;5127;50.922;6.988;2024-02-26T12:14:09;2.33;;;1.30;;
10170;SDS011;5127;50.922;6.988;2024-02-26T12:16:37;2.53;;;1.40;;
10170;SDS011;5127;50.922;6.988;2024-02-26T12:19:08;1.50;;;1.40;;
10170;SDS011;5127;50.922;6.988;2024-02-26T12:21:36;3.00;;;1.50;;
10170;SDS011;5127;50.922;6.988;2024-02-26T12:24:09;2.60;;;1.60;;
10170;SDS011;5127;50.922;6.988;2024-02-26T12:26:37;1.60;;;1.50;;
10170;SDS011;5127;50.922;6.988;2024-02-26T12:29:12;2.30;;;1.70;;
10170;SDS011;5127;50.922;6.988;2024-02-26T12:31:39;1.60;;;1.50;;
10170;SDS011;5127;50.922;6.988;2024-02-26T12:34:08;1.50;;;1.37;;
10170;SDS011;5127;50.922;6.988;2024-02-26T12:36:37;2.00;;;1.80;;
10170;SDS011;5127;50.922;6.988;2024-02-26T12:39:05;1.53;;;1.40;;
10170;SDS011;5127;50.922;6.988;2024-02-26T12:41:35;1.70;;;1.50;;
10170;SDS011;5127;50.922;6.988;2024-02-26T12:44:03;1.67;;;1.57;;
10170;SDS011;5127;50.922;6.988;2024-02-26T12:46:33;2.07;;;1.53;;
10170;SDS011;5127;50.922;6.988;2024-02-26T12:49:01;2.17;;;1.60;;
10170;SDS011;5127;50.922;6.988;2024-02-26T12:51:28;1.83;;;1.60;;
10170;SDS011;5127;50.922;6.988;2024-02-26T12:53:56;2.07;;;1.60;;
10170;SDS011;5127;50.922;6.988;2024-02-26T12:56:23;2.10;;;1.77;;
10170;SDS011;5127;50.922;6.988;2024-02-26T12:58:52;2.13;;;1.60;;
10170;SDS011;5127;50.922;6.988;2024-02-26T13:01:21;1.77;;;1.67;;
10170;SDS011;5127;50.922;6.988;2024-02-26T13:03:52;1.53;;;1.43;;
10170;SDS011;5127;50.922;6.988;2024-02-26T13:06:20;1.77;;;1.30;;
10170;SDS011;5127;50.922;6.988;2024-02-26T13:08:48;1.63;;;1.53;;
10170;SDS011;5127;50.922;6.988;2024-02-26T13:11:15;1.97;;;1.73;;
10170;SDS011;5127;50.922;6.988;2024-02-26T13:13:47;2.93;;;1.90;;
10170;SDS011;5127;50.922;6.988;2024-02-26T13:16:14;1.70;;;1.60;;
10170;SDS011;5127;50.922;6.988;2024-02-26T13:18:42;2.27;;;1.70;;
10170;SDS011;5127;50.922;6.988;2024-02-26T13:21:12;1.70;;;1.60;;
10170;SDS011;5127;50.922;6.988;2024-02-26T13:23:40;1.80;;;1.70;;
10170;SDS011;5127;50.922;6.988;2024-02-26T13:26:09;2.53;;;1.80;;
10170;SDS011;5127;50.922;6.988;2024-02-26T13:28:39;2.00;;;1.60;;
10170;SDS011;5127;50.922;6.988;2024-02-26T13:31:09;1.80;;;1.70;;
10170;SDS011;5127;50.922;6.988;2024-02-26T13:33:36;2.23;;;1.90;;
10170;SDS011;5127;50.922;6.988;2024-02-26T13:36:03;2.20;;;1.83;;
10170;SDS011;5127;50.922;6.988;2024-02-26T13:38:32;2.20;;;2.00;;
10170;SDS011;5127;50.922;6.988;2024-02-26T13:41:01;3.30;;;1.93;;
10170;SDS011;5127;50.922;6.988;2024-02-26T13:43:28;2.00;;;1.80;;
10170;SDS011;5127;50.922;6.988;2024-02-26T13:45:56;2.13;;;1.90;;
10170;SDS011;5127;50.922;6.988;2024-02-26T13:48:23;2.40;;;2.03;;
10170;SDS011;5127;50.922;6.988;2024-02-26T13:50:51;1.97;;;1.70;;
10170;SDS011;5127;50.922;6.988;2024-02-26T13:53:18;2.30;;;2.10;;
10170;SDS011;5127;50.922;6.988;2024-02-26T13:55:48;2.50;;;1.87;;
10170;SDS011;5127;50.922;6.988;2024-02-26T13:58:15;1.90;;;1.80;;
10170;SDS011;5127;50.922;6.988;2024-02-26T14:00:45;3.17;;;2.20;;
10170;SDS011;5127;50.922;6.988;2024-02-26T14:03:13;2.50;;;2.07;;
10170;SDS011;5127;50.922;6.988;2024-02-26T14:05:41;3.07;;;2.13;;
10170;SDS011;5127;50.922;6.988;2024-02-26T14:08:09;2.40;;;2.10;;
10170;SDS011;5127;50.922;6.988;2024-02-26T14:10:36;2.50;;;2.30;;
10170;SDS011;5127;50.922;6.988;2024-02-26T14:13:05;3.10;;;2.27;;
10170;SDS011;5127;50.922;6.988;2024-02-26T14:15:32;2.73;;;2.03;;
10170;SDS011;5127;50.922;6.988;2024-02-26T14:18:01;2.43;;;2.23;;
10170;SDS011;5127;50.922;6.988;2024-02-26T14:20:29;2.67;;;2.30;;
10170;SDS011;5127;50.922;6.988;2024-02-26T14:22:56;2.90;;;2.60;;
10170;SDS011;5127;50.922;6.988;2024-02-26T14:25:24;2.47;;;2.23;;
10170;SDS011;5127;50.922;6.988;2024-02-26T14:27:51;2.40;;;2.20;;
10170;SDS011;5127;50.922;6.988;2024-02-26T14:30:20;3.40;;;2.63;;
10170;SDS011;5127;50.922;6.988;2024-02-26T14:32:47;3.00;;;2.70;;
10170;SDS011;5127;50.922;6.988;2024-02-26T14:35:15;2.73;;;2.50;;
10170;SDS011;5127;50.922;6.988;2024-02-26T14:37:42;3.40;;;2.37;;
10170;SDS011;5127;50.922;6.988;2024-02-26T14:40:11;3.00;;;2.73;;
10170;SDS011;5127;50.922;6.988;2024-02-26T14:42:39;3.03;;;2.73;;
10170;SDS011;5127;50.922;6.988;2024-02-26T14:45:07;3.07;;;2.40;;
10170;SDS011;5127;50.922;6.988;2024-02-26T14:47:38;2.90;;;2.60;;
10170;SDS011;5127;50.922;6.988;2024-02-26T14:50:11;3.30;;;2.90;;
10170;SDS011;5127;50.922;6.988;2024-02-26T14:52:38;4.57;;;2.80;;
10170;SDS011;5127;50.922;6.988;2024-02-26T14:55:08;3.27;;;2.93;;
10170;SDS011;5127;50.922;6.988;2024-02-26T14:57:36;3.30;;;3.00;;
10170;SDS011;5127;50.922;6.988;2024-02-26T15:00:03;4.00;;;3.00;;
10170;SDS011;5127;50.922;6.988;2024-02-26T15:02:32;4.90;;;3.03;;
10170;SDS011;5127;50.922;6.988;2024-02-26T15:05:04;3.80;;;3.40;;